Aérodrome :
LOGIN :

S'inscrire | Disclaimer

   EN    FR    IT 

 










Légende :    VFR   VFR Marginal   IFR   IFR Intensif   IFR Très Intensif
Visi : 
Plafond : 
>= 8 km
>= 3000ft
5 à 8 km
1000 à 3000 ft
1500m à 5 km
500 à 1000 ft
800 à 1500m
200 à 500 ft
< 800m
< 200 ft
Symboles :   Orages  Brouillard  Fortes neiges  Fortes précipitations  Vent > 20 kt
SIGMETs :   Divers  Orages  Givrage  Turbulence  Onde Orograph.  Cendres Volcan.






- Altitude de l'aérodrome : 102 ft
- Code IATA : EXT


EGTE - Exeter

DERNIER METAR :
  • 182050Z 28009KT 9999 -SHRA SCT025 06/04 Q1019

METARs EXPIRÉS :
  • 182020Z 30017KT 7000 SCT030 09/04 Q1018 RESHRA
  • 181950Z 25019KT 220V280 9999 FEW030 07/04 Q1017
  • 181920Z 25016KT 9999 FEW030 08/04 Q1017
  • 181850Z 24014KT 210V270 9999 FEW020 07/04 Q1017
  • 181820Z 25017G27KT 210V270 9999 FEW020 08/05 Q1017

TAF TAF EGTE
Valide du 18 à 21h jusqu'au 19 à 03h UTC


182009Z 1821/1903 26012KT 9999 FEW030
TEMPO 1821/1822 28015G25KT 6000 SHRA



MET'MAP, la Météo Aéronautique d'un coup d'oeil ! - Copyright ORBIFLY Décembre 2007 - Disclaimer

ORBIFLY MET'MAP TEAM :

Programmation & Développement : Alexandra Zaïnal
Sur une idée originale de : Baudouin d'Aumeries
Assistance à la programmation : Marc-Olivier Méhu
Soutien technique & logistique : Manuel Goepfert

Contact : metmap@orbifly.com




SOURCES & CREDITS :

   NOAA